Terminal Aerodrome Forecast
Issued by NWS

Home | Current Version | Previous Version | Text Only | Print | Product List | Glossary On
Versions: 1 2 3 4 5 6 7 8 9 10 11 12 13 14 15 16 17
000
FTUS46 KHNX 300530
TAFMER
TAF
KMER 300530Z 3006/3106 00000KT 1/4SM FG VV001
      TEMPO 3018/3021 2SM BR BKN005
     FM302100 32004KT 2SM BR BKN005
     FM302300 29005KT 4SM HZ SCT005
     FM310400 VRB03KT 1SM BR BKN005
      TEMPO 3104/3106 1/2SM FG VV003=

USA.gov is the U.S. government's official web portal to all federal, state and local government web resources and services.